Time;durP1;ratioP1;P1;durP2;ratioP2;P2;SDS_P1;SDS_P2;PMS_P1;PMS_P2;Temp;Humidity;BMP_temperature;BMP_pressure;BME280_temperature;BME280_humidity;BME280_pressure;Samples;Min_cycle;Max_cycle;Signal;HPM_P1;HPM_P2
2024/01/27 00:00:09;;;;;;;24.23;14.32;;;25.40;99.90;;;;;;4956037;28;20027;-55
2024/01/27 00:02:35;;;;;;;22.77;14.05;;;25.40;99.90;;;;;;4973260;28;20458;-55
2024/01/27 00:05:02;;;;;;;19.65;13.95;;;25.40;99.90;;;;;;4973265;28;20387;-54
2024/01/27 00:07:28;;;;;;;24.92;15.23;;;25.40;99.90;;;;;;4973514;28;20054;-55
2024/01/27 00:09:55;;;;;;;21.80;14.48;;;25.30;99.90;;;;;;4973193;28;20029;-54
2024/01/27 00:12:21;;;;;;;22.13;14.10;;;25.30;99.90;;;;;;4956137;28;20043;-55
2024/01/27 00:14:47;;;;;;;21.20;14.30;;;25.30;99.90;;;;;;4973168;28;20031;-54
2024/01/27 00:17:12;;;;;;;21.33;14.60;;;25.30;99.90;;;;;;4973069;28;20495;-54
2024/01/27 00:19:38;;;;;;;21.85;14.32;;;25.30;99.90;;;;;;4955993;28;20431;-55
2024/01/27 00:22:04;;;;;;;21.00;13.73;;;25.30;99.90;;;;;;4973049;28;20030;-55
2024/01/27 00:24:30;;;;;;;21.88;15.18;;;25.20;99.90;;;;;;4973351;28;20023;-54
2024/01/27 00:26:56;;;;;;;23.20;13.80;;;25.20;99.90;;;;;;4973326;28;20034;-54
2024/01/27 00:29:22;;;;;;;20.70;13.07;;;25.20;99.90;;;;;;4973155;28;20026;-55
2024/01/27 00:31:49;;;;;;;22.73;13.63;;;25.20;99.90;;;;;;4973000;28;20027;-56
2024/01/27 00:34:15;;;;;;;24.40;14.57;;;25.20;99.90;;;;;;4972800;28;20039;-54
2024/01/27 00:36:43;;;;;;;20.17;13.57;;;25.20;99.90;;;;;;4973076;28;20526;-54
2024/01/27 00:39:09;;;;;;;19.33;12.90;;;25.10;99.90;;;;;;4973084;28;20485;-54
2024/01/27 00:41:34;;;;;;;20.30;13.85;;;25.10;99.90;;;;;;4972735;28;20046;-55
2024/01/27 00:44:00;;;;;;;18.35;12.00;;;25.10;99.90;;;;;;4972949;28;20031;-55
2024/01/27 00:46:26;;;;;;;22.77;13.73;;;25.10;99.90;;;;;;4972871;28;20023;-55
2024/01/27 00:48:52;;;;;;;22.77;14.02;;;25.10;99.90;;;;;;4973046;28;20470;-55
2024/01/27 00:51:17;;;;;;;19.25;13.40;;;25.10;99.90;;;;;;4973153;28;20100;-55
2024/01/27 00:53:43;;;;;;;19.05;13.40;;;25.00;99.90;;;;;;4972960;28;20057;-55
2024/01/27 00:56:09;;;;;;;20.20;13.65;;;25.00;99.90;;;;;;4973535;28;20065;-55
2024/01/27 00:58:35;;;;;;;22.30;14.30;;;25.00;99.90;;;;;;4959584;28;20431;-54
2024/01/27 01:01:01;;;;;;;19.50;13.60;;;25.00;99.90;;;;;;4976891;23;20059;-50
2024/01/27 01:03:27;;;;;;;20.75;13.68;;;25.00;99.90;;;;;;4937055;29;20024;-51
2024/01/27 01:05:52;;;;;;;23.35;14.15;;;25.00;99.90;;;;;;4938182;29;20362;-51
2024/01/27 01:08:18;;;;;;;21.75;13.50;;;25.00;99.90;;;;;;4938194;29;20031;-50
2024/01/27 01:10:44;;;;;;;18.15;11.90;;;25.00;99.90;;;;;;4938096;29;20036;-51
2024/01/27 01:13:10;;;;;;;20.42;13.15;;;25.00;99.90;;;;;;4938057;29;20043;-52
2024/01/27 01:15:36;;;;;;;19.10;13.63;;;24.90;99.90;;;;;;4938020;29;20078;-50
2024/01/27 01:18:03;;;;;;;17.80;12.25;;;24.90;99.90;;;;;;4938110;29;20075;-52
2024/01/27 01:20:30;;;;;;;18.00;12.98;;;24.90;99.90;;;;;;4938143;29;20448;-51
2024/01/27 01:22:56;;;;;;;19.60;13.15;;;24.90;99.90;;;;;;4937953;29;20028;-51
2024/01/27 01:25:22;;;;;;;19.45;12.95;;;24.90;99.90;;;;;;4936515;29;20028;-51
2024/01/27 01:27:49;;;;;;;16.63;12.25;;;24.90;99.90;;;;;;4937885;29;20039;-50
2024/01/27 01:30:16;;;;;;;16.50;11.30;;;24.80;99.90;;;;;;4937846;29;20107;-51
2024/01/27 01:32:42;;;;;;;15.75;12.02;;;24.80;99.90;;;;;;4937709;29;20046;-50
2024/01/27 01:35:10;;;;;;;17.17;11.82;;;24.80;99.90;;;;;;4936509;29;20369;-50
2024/01/27 01:37:35;;;;;;;17.50;12.88;;;24.80;99.90;;;;;;4920518;29;20024;-51
2024/01/27 01:40:02;;;;;;;18.38;12.13;;;24.80;99.90;;;;;;4936575;29;20028;-51
2024/01/27 01:42:29;;;;;;;15.95;11.45;;;24.80;99.90;;;;;;4936305;29;20488;-51
2024/01/27 01:44:55;;;;;;;15.57;11.23;;;24.70;99.90;;;;;;4937562;29;20044;-50
2024/01/27 01:47:24;;;;;;;15.05;10.82;;;24.70;99.90;;;;;;4937393;29;20038;-51
2024/01/27 01:49:52;;;;;;;15.95;11.23;;;24.70;99.90;;;;;;4937508;29;20062;-51
2024/01/27 01:52:19;;;;;;;17.58;11.57;;;24.70;99.90;;;;;;4937347;29;20050;-51
2024/01/27 01:54:50;;;;;;;17.63;10.93;;;24.70;99.90;;;;;;4937288;29;20465;-51
2024/01/27 01:57:16;;;;;;;14.15;10.65;;;24.70;99.90;;;;;;4937222;29;20035;-50
2024/01/27 01:59:42;;;;;;;18.77;10.55;;;24.70;99.90;;;;;;4937286;29;20024;-51
2024/01/27 02:02:09;;;;;;;16.95;11.07;;;24.70;99.90;;;;;;4977096;23;20054;-55
2024/01/27 02:04:45;;;;;;;16.15;11.52;;;24.60;99.90;;;;;;4975792;28;20503;-55
2024/01/27 02:07:12;;;;;;;17.73;11.27;;;24.60;99.90;;;;;;4974903;28;20023;-54
2024/01/27 02:09:37;;;;;;;15.77;11.25;;;24.60;99.90;;;;;;4975402;28;20106;-55
2024/01/27 02:12:04;;;;;;;13.55;9.95;;;24.60;99.90;;;;;;4975329;28;20122;-55
2024/01/27 02:14:30;;;;;;;14.57;10.75;;;24.60;99.90;;;;;;4975349;28;20207;-54
2024/01/27 02:16:56;;;;;;;13.75;10.32;;;24.60;99.90;;;;;;4975306;28;20023;-54
2024/01/27 02:19:22;;;;;;;14.70;10.40;;;24.50;99.90;;;;;;4975416;28;20328;-55
2024/01/27 02:21:48;;;;;;;17.95;11.57;;;24.50;99.90;;;;;;4957788;28;20030;-55
2024/01/27 02:24:14;;;;;;;15.40;10.73;;;24.50;99.90;;;;;;4975222;28;20031;-54
2024/01/27 02:26:40;;;;;;;16.48;10.07;;;24.50;99.90;;;;;;4957984;28;20266;-55
2024/01/27 02:29:05;;;;;;;14.90;10.38;;;24.50;99.90;;;;;;4975356;28;20037;-55
2024/01/27 02:31:31;;;;;;;16.63;10.90;;;24.50;99.90;;;;;;4975039;28;20033;-55
2024/01/27 02:33:57;;;;;;;15.73;10.43;;;24.50;99.90;;;;;;4974944;28;20031;-54
2024/01/27 02:36:23;;;;;;;13.65;10.55;;;24.50;99.90;;;;;;4974711;28;20427;-55
2024/01/27 02:38:48;;;;;;;14.95;10.95;;;24.50;99.90;;;;;;4975059;28;20118;-55
2024/01/27 02:41:14;;;;;;;17.05;11.05;;;24.50;99.90;;;;;;4974673;28;20038;-55
2024/01/27 02:43:40;;;;;;;16.58;10.82;;;24.50;99.90;;;;;;4974805;28;20030;-54
2024/01/27 02:46:12;;;;;;;16.35;10.57;;;24.40;99.90;;;;;;4975156;28;20037;-54
2024/01/27 02:48:42;;;;;;;14.13;10.18;;;24.40;99.90;;;;;;4975059;28;20027;-54
2024/01/27 02:51:08;;;;;;;13.52;10.50;;;24.40;99.90;;;;;;4974918;28;20031;-55
2024/01/27 02:53:34;;;;;;;15.50;10.43;;;24.40;99.90;;;;;;4957379;28;20051;-55
2024/01/27 02:56:00;;;;;;;15.00;10.98;;;24.40;99.90;;;;;;4974538;28;20051;-55
2024/01/27 02:58:26;;;;;;;17.50;10.95;;;24.30;99.90;;;;;;4974590;28;20046;-55
2024/01/27 03:00:51;;;;;;;14.15;10.38;;;24.30;99.90;;;;;;4974933;28;20046;-54
2024/01/27 03:03:17;;;;;;;15.00;10.45;;;24.30;99.90;;;;;;4974490;28;20023;-54
2024/01/27 03:05:43;;;;;;;14.57;10.45;;;24.30;99.90;;;;;;4956980;28;20058;-54
2024/01/27 03:08:09;;;;;;;14.35;10.10;;;24.30;99.90;;;;;;4957140;28;20019;-54
2024/01/27 03:10:35;;;;;;;16.52;10.63;;;24.30;99.90;;;;;;4974599;28;20031;-55
2024/01/27 03:13:03;;;;;;;15.25;11.27;;;24.20;99.90;;;;;;4974263;28;20054;-54
2024/01/27 03:15:28;;;;;;;15.25;10.90;;;24.20;99.90;;;;;;4974255;28;20534;-54
2024/01/27 03:17:54;;;;;;;14.18;10.20;;;24.20;99.90;;;;;;4974236;28;20530;-54
2024/01/27 03:20:20;;;;;;;15.15;10.85;;;24.20;99.90;;;;;;4973239;28;20038;-55
2024/01/27 03:22:46;;;;;;;16.88;11.45;;;24.20;99.90;;;;;;4974158;28;20106;-55
2024/01/27 03:25:11;;;;;;;16.10;11.15;;;24.20;99.90;;;;;;4974006;28;20054;-55
2024/01/27 03:27:37;;;;;;;15.32;10.95;;;24.20;99.90;;;;;;4974228;28;20030;-55
2024/01/27 03:30:04;;;;;;;16.83;11.77;;;24.20;99.90;;;;;;4973859;28;20098;-55
2024/01/27 03:32:33;;;;;;;16.13;11.55;;;24.20;99.90;;;;;;4973864;28;20089;-55
2024/01/27 03:35:02;;;;;;;15.85;11.50;;;24.10;99.90;;;;;;4973889;28;20085;-54
2024/01/27 03:37:28;;;;;;;14.50;9.75;;;24.10;99.90;;;;;;4973815;28;20049;-55
2024/01/27 03:39:54;;;;;;;15.43;11.50;;;24.10;99.90;;;;;;4973868;28;20471;-55
2024/01/27 03:42:20;;;;;;;16.23;11.40;;;24.10;99.90;;;;;;4973519;28;20050;-55
2024/01/27 03:44:46;;;;;;;17.13;11.57;;;24.10;99.90;;;;;;4973763;28;20022;-54
2024/01/27 03:47:11;;;;;;;15.65;11.00;;;24.00;99.90;;;;;;4973693;28;20519;-55
2024/01/27 03:49:37;;;;;;;14.00;10.45;;;24.10;99.90;;;;;;4973932;28;20105;-54
2024/01/27 03:52:04;;;;;;;16.65;11.73;;;24.00;99.90;;;;;;4973614;28;20060;-54
2024/01/27 03:54:30;;;;;;;14.70;10.40;;;24.00;99.90;;;;;;4973634;28;20142;-55
2024/01/27 03:56:56;;;;;;;16.60;11.15;;;24.00;99.90;;;;;;4973639;28;20509;-54
2024/01/27 03:59:22;;;;;;;15.43;10.48;;;24.00;99.90;;;;;;4956187;28;20159;-54
2024/01/27 04:01:47;;;;;;;14.88;10.85;;;24.00;99.90;;;;;;4973840;28;20047;-55
2024/01/27 04:04:14;;;;;;;14.95;10.63;;;24.00;99.90;;;;;;4973478;28;20054;-54
2024/01/27 04:06:40;;;;;;;15.63;11.05;;;24.00;99.90;;;;;;4973588;28;20031;-54
2024/01/27 04:09:09;;;;;;;15.18;11.40;;;23.90;99.90;;;;;;4973393;28;20025;-55
2024/01/27 04:11:36;;;;;;;13.43;9.90;;;23.90;99.90;;;;;;4973350;28;20030;-54
2024/01/27 04:14:03;;;;;;;15.23;10.87;;;23.90;99.90;;;;;;4973480;28;20439;-54
2024/01/27 04:16:29;;;;;;;15.15;10.65;;;23.90;99.90;;;;;;4973426;28;20031;-54
2024/01/27 04:18:55;;;;;;;14.82;10.57;;;23.90;99.90;;;;;;4939971;28;20085;-55
2024/01/27 04:21:20;;;;;;;15.32;10.30;;;23.90;99.90;;;;;;4973439;28;20027;-55
2024/01/27 04:23:46;;;;;;;12.60;9.45;;;23.90;99.90;;;;;;4955855;28;20026;-54
2024/01/27 04:26:12;;;;;;;15.50;10.48;;;23.90;99.90;;;;;;4973437;28;20034;-54
2024/01/27 04:28:38;;;;;;;16.33;10.82;;;23.80;99.90;;;;;;4973460;28;20022;-54
2024/01/27 04:31:04;;;;;;;15.20;10.85;;;23.80;99.90;;;;;;4975260;28;20054;-54
2024/01/27 04:33:30;;;;;;;18.00;11.48;;;23.80;99.90;;;;;;4976843;28;20141;-54
2024/01/27 04:35:55;;;;;;;14.30;10.52;;;23.80;99.90;;;;;;4977150;28;20472;-55
2024/01/27 04:38:21;;;;;;;15.93;11.10;;;23.80;99.90;;;;;;4977103;28;20023;-54
2024/01/27 04:40:49;;;;;;;13.52;9.88;;;23.80;99.90;;;;;;4976922;28;20019;-55
2024/01/27 04:43:16;;;;;;;16.50;10.57;;;23.80;99.90;;;;;;4959746;28;20023;-55
2024/01/27 04:45:42;;;;;;;14.40;10.40;;;23.80;99.90;;;;;;4977339;28;20034;-55
2024/01/27 04:48:08;;;;;;;17.27;11.27;;;23.80;99.90;;;;;;4976830;28;20019;-55
2024/01/27 04:50:34;;;;;;;13.38;9.30;;;23.80;99.90;;;;;;4959737;28;20023;-55
2024/01/27 04:53:00;;;;;;;15.35;10.50;;;23.80;99.90;;;;;;4976704;28;20539;-55
2024/01/27 04:55:27;;;;;;;14.30;10.10;;;23.70;99.90;;;;;;4976733;28;20110;-55
2024/01/27 04:57:53;;;;;;;14.23;10.25;;;23.70;99.90;;;;;;4975472;28;20530;-55
2024/01/27 05:00:19;;;;;;;15.80;10.38;;;23.70;99.90;;;;;;4976666;28;20480;-54
2024/01/27 05:02:45;;;;;;;15.30;10.25;;;23.70;99.90;;;;;;4977005;28;20435;-54
2024/01/27 05:05:11;;;;;;;12.85;9.93;;;23.70;99.90;;;;;;4976685;28;20023;-54
2024/01/27 05:07:38;;;;;;;14.27;10.18;;;23.70;99.90;;;;;;4976551;28;20031;-54
2024/01/27 05:10:05;;;;;;;11.70;8.97;;;23.70;99.90;;;;;;4976549;28;20023;-55
2024/01/27 05:12:30;;;;;;;13.38;9.82;;;23.70;99.90;;;;;;4976446;28;20287;-54
2024/01/27 05:14:56;;;;;;;13.93;8.80;;;23.70;99.90;;;;;;4959077;28;20121;-54
2024/01/27 05:17:22;;;;;;;13.13;9.48;;;23.60;99.90;;;;;;4976272;28;20023;-54
2024/01/27 05:19:50;;;;;;;14.63;9.15;;;23.60;99.90;;;;;;4976494;28;20050;-55
2024/01/27 05:22:16;;;;;;;13.68;9.43;;;23.60;99.90;;;;;;4976496;28;20034;-54
2024/01/27 05:24:41;;;;;;;13.95;9.73;;;23.60;99.90;;;;;;4976423;28;20023;-55
2024/01/27 05:27:07;;;;;;;14.82;9.60;;;23.60;99.90;;;;;;4976379;28;20472;-55
2024/01/27 05:29:33;;;;;;;15.13;10.20;;;23.60;99.90;;;;;;4976097;28;20490;-54
2024/01/27 05:31:59;;;;;;;13.07;9.52;;;23.60;99.90;;;;;;4976017;28;20450;-54
2024/01/27 05:34:24;;;;;;;12.30;8.85;;;23.60;99.90;;;;;;4976103;28;20022;-54
2024/01/27 05:36:50;;;;;;;12.95;9.25;;;23.60;99.90;;;;;;4975973;28;20023;-54
2024/01/27 05:39:16;;;;;;;13.32;9.45;;;23.50;99.90;;;;;;4976170;28;20038;-54
2024/01/27 05:41:42;;;;;;;11.60;8.82;;;23.50;99.90;;;;;;4975292;28;20462;-54
2024/01/27 05:44:08;;;;;;;12.98;8.82;;;23.50;99.90;;;;;;4958615;28;20027;-54
2024/01/27 05:46:33;;;;;;;11.70;8.45;;;23.50;99.90;;;;;;4975884;28;20118;-54
2024/01/27 05:49:02;;;;;;;11.52;8.63;;;23.50;99.90;;;;;;4975750;28;20023;-54
2024/01/27 05:51:30;;;;;;;10.90;8.55;;;23.50;99.90;;;;;;4975752;28;20018;-54
2024/01/27 05:53:56;;;;;;;11.23;8.18;;;23.50;99.90;;;;;;4975675;28;20406;-54
2024/01/27 05:56:22;;;;;;;12.15;8.77;;;23.50;99.90;;;;;;4975755;28;20479;-54
2024/01/27 05:58:48;;;;;;;12.23;9.00;;;23.50;99.90;;;;;;4958667;28;20038;-54
2024/01/27 06:01:14;;;;;;;12.27;9.23;;;23.50;99.90;;;;;;4974062;28;20054;-54
2024/01/27 06:03:44;;;;;;;14.85;8.82;;;23.50;99.90;;;;;;4974744;28;20022;-54
2024/01/27 06:06:10;;;;;;;14.20;8.75;;;23.40;99.90;;;;;;4973898;28;20108;-54
2024/01/27 06:08:36;;;;;;;11.25;8.77;;;23.50;99.90;;;;;;4975529;28;20019;-54
2024/01/27 06:11:03;;;;;;;12.43;8.25;;;23.40;99.90;;;;;;4975490;28;20026;-54
2024/01/27 06:13:29;;;;;;;10.57;8.32;;;23.40;99.90;;;;;;4975283;28;20085;-54
2024/01/27 06:15:55;;;;;;;12.00;8.68;;;23.40;99.90;;;;;;4974312;28;20030;-54
2024/01/27 06:18:21;;;;;;;12.13;8.52;;;23.40;99.90;;;;;;4975269;28;20101;-54
2024/01/27 06:20:47;;;;;;;13.13;8.48;;;23.40;99.90;;;;;;4975475;28;20030;-56
2024/01/27 06:23:13;;;;;;;11.27;8.13;;;23.40;99.90;;;;;;4972730;28;20537;-56
2024/01/27 06:25:38;;;;;;;12.15;7.95;;;23.40;99.90;;;;;;4974734;28;20037;-56
2024/01/27 06:28:04;;;;;;;10.00;7.38;;;23.40;99.90;;;;;;4974046;28;20074;-55
2024/01/27 06:30:30;;;;;;;12.07;8.43;;;23.40;99.90;;;;;;4974607;28;20383;-55
2024/01/27 06:32:56;;;;;;;11.57;8.68;;;23.40;99.90;;;;;;4974998;28;20039;-55
2024/01/27 06:35:21;;;;;;;12.20;8.15;;;23.40;99.90;;;;;;4975203;28;20025;-54
2024/01/27 06:37:47;;;;;;;11.05;8.15;;;23.30;99.90;;;;;;4975053;28;20023;-55
2024/01/27 06:40:14;;;;;;;10.55;7.45;;;23.30;99.90;;;;;;4973697;28;20030;-55
2024/01/27 06:42:39;;;;;;;12.75;7.68;;;23.30;99.90;;;;;;4957392;28;20090;-55
2024/01/27 06:45:05;;;;;;;10.25;7.55;;;23.30;99.90;;;;;;4973523;28;20023;-56
2024/01/27 06:47:31;;;;;;;11.93;8.23;;;23.30;99.90;;;;;;4974456;28;20026;-55
2024/01/27 06:49:57;;;;;;;10.23;7.38;;;23.30;99.90;;;;;;4974852;28;20092;-55
2024/01/27 06:52:23;;;;;;;10.95;7.18;;;23.30;99.90;;;;;;4974568;28;20031;-55
2024/01/27 06:54:49;;;;;;;11.40;7.85;;;23.30;99.90;;;;;;4973303;28;20027;-55
2024/01/27 06:57:22;;;;;;;11.07;7.25;;;23.30;99.90;;;;;;4974269;28;20021;-55
2024/01/27 06:59:52;;;;;;;10.40;7.30;;;23.30;99.90;;;;;;4974706;28;20022;-55
2024/01/27 07:02:19;;;;;;;10.50;7.47;;;23.20;99.90;;;;;;4974550;28;20117;-55
2024/01/27 07:04:44;;;;;;;12.43;7.57;;;23.20;99.90;;;;;;4974460;28;20018;-55
2024/01/27 07:07:10;;;;;;;14.48;7.38;;;23.20;99.90;;;;;;4974396;28;20029;-55
2024/01/27 07:09:36;;;;;;;11.75;7.55;;;23.20;99.90;;;;;;4974346;28;20029;-56
2024/01/27 07:12:02;;;;;;;11.50;6.65;;;23.20;99.90;;;;;;4974289;28;20077;-55
2024/01/27 07:14:27;;;;;;;12.20;7.80;;;23.20;99.90;;;;;;4974311;28;20038;-55
2024/01/27 07:16:53;;;;;;;8.73;6.13;;;23.20;99.90;;;;;;4974297;28;20034;-56
2024/01/27 07:19:19;;;;;;;11.10;6.88;;;23.20;99.90;;;;;;4974522;28;20037;-56
2024/01/27 07:21:45;;;;;;;8.95;6.30;;;23.20;99.90;;;;;;4974220;28;20030;-56
2024/01/27 07:24:10;;;;;;;9.77;6.45;;;23.20;99.90;;;;;;4973955;28;20114;-56
2024/01/27 07:26:36;;;;;;;10.35;7.45;;;23.20;99.90;;;;;;4974026;28;20022;-55
2024/01/27 07:29:02;;;;;;;9.85;6.85;;;23.20;99.90;;;;;;4974079;28;20118;-56
2024/01/27 07:31:28;;;;;;;12.10;6.93;;;23.20;99.90;;;;;;4974105;28;20030;-56
2024/01/27 07:33:53;;;;;;;10.13;6.25;;;23.20;99.90;;;;;;4974022;28;20431;-56
2024/01/27 07:36:19;;;;;;;8.68;6.75;;;23.20;99.90;;;;;;4974120;28;20027;-56
2024/01/27 07:38:45;;;;;;;12.00;6.25;;;23.20;99.90;;;;;;4973900;28;20472;-56
2024/01/27 07:41:11;;;;;;;9.95;7.07;;;23.10;99.90;;;;;;4973680;28;20023;-56
2024/01/27 07:43:36;;;;;;;9.98;6.30;;;23.10;99.90;;;;;;4973746;28;20081;-56
2024/01/27 07:46:02;;;;;;;8.50;5.90;;;23.10;99.90;;;;;;4973879;28;20037;-56
2024/01/27 07:48:28;;;;;;;9.75;6.63;;;23.10;99.90;;;;;;4973884;28;20023;-55
2024/01/27 07:50:56;;;;;;;11.70;6.55;;;23.10;99.90;;;;;;4973852;28;20022;-56
2024/01/27 07:53:22;;;;;;;11.25;6.40;;;23.20;99.90;;;;;;4973749;28;20066;-56
2024/01/27 07:55:47;;;;;;;11.30;6.38;;;23.10;99.90;;;;;;4973611;28;20065;-56
2024/01/27 07:58:13;;;;;;;9.95;6.72;;;23.20;99.90;;;;;;4973652;28;20034;-56
2024/01/27 08:00:39;;;;;;;12.73;7.95;;;23.20;99.90;;;;;;4973402;28;20034;-56
2024/01/27 08:03:05;;;;;;;9.07;7.00;;;23.20;99.90;;;;;;4973542;28;20031;-56
2024/01/27 08:05:30;;;;;;;9.30;7.10;;;23.20;99.90;;;;;;4973012;28;20050;-56
2024/01/27 08:07:56;;;;;;;11.00;6.75;;;23.20;99.90;;;;;;4973525;28;20077;-55
2024/01/27 08:10:22;;;;;;;8.77;6.57;;;23.20;99.90;;;;;;4956488;28;20476;-55
2024/01/27 08:12:48;;;;;;;8.77;6.10;;;23.30;99.90;;;;;;4973507;28;20449;-56
2024/01/27 08:15:14;;;;;;;8.98;6.45;;;23.30;99.90;;;;;;4973535;28;20106;-56
2024/01/27 08:17:39;;;;;;;9.25;6.38;;;23.30;99.90;;;;;;4973429;28;20038;-56
2024/01/27 08:20:06;;;;;;;10.63;6.57;;;23.30;99.90;;;;;;4973369;28;20110;-56
2024/01/27 08:22:32;;;;;;;8.32;5.90;;;23.30;99.90;;;;;;4973443;28;20043;-56
2024/01/27 08:24:58;;;;;;;9.68;6.32;;;23.30;99.90;;;;;;4973225;28;20023;-56
2024/01/27 08:27:23;;;;;;;12.23;6.40;;;23.40;99.90;;;;;;4955950;28;20034;-56
2024/01/27 08:29:49;;;;;;;9.15;6.65;;;23.40;99.90;;;;;;4973335;28;20105;-56
2024/01/27 08:32:15;;;;;;;11.32;6.35;;;23.40;99.90;;;;;;4973201;28;20042;-57
2024/01/27 08:34:41;;;;;;;8.98;6.00;;;23.40;99.90;;;;;;4973261;28;20063;-56
2024/01/27 08:37:18;;;;;;;9.15;6.57;;;23.40;99.90;;;;;;4973226;28;20417;-57
2024/01/27 08:39:44;;;;;;;10.48;6.30;;;23.40;99.90;;;;;;4973193;28;20039;-56
2024/01/27 08:42:11;;;;;;;9.38;6.00;;;23.40;99.90;;;;;;4973187;28;20383;-55
2024/01/27 08:44:37;;;;;;;7.93;6.20;;;23.40;99.90;;;;;;4973309;28;20674;-55
2024/01/27 08:47:03;;;;;;;10.82;6.35;;;23.50;99.90;;;;;;4973184;28;20027;-55
2024/01/27 08:49:29;;;;;;;9.93;6.72;;;23.50;99.90;;;;;;4973071;28;20019;-55
2024/01/27 08:51:55;;;;;;;10.13;6.07;;;23.50;99.90;;;;;;4973166;28;20031;-56
2024/01/27 08:54:21;;;;;;;9.90;6.15;;;23.50;99.90;;;;;;4955897;28;20026;-55
2024/01/27 08:56:47;;;;;;;10.27;6.13;;;23.50;99.90;;;;;;4972992;28;20033;-55
2024/01/27 08:59:13;;;;;;;7.68;5.28;;;23.50;99.90;;;;;;4972944;28;20554;-55
2024/01/27 09:01:39;;;;;;;7.82;5.18;;;23.50;99.90;;;;;;4972950;28;20047;-55
2024/01/27 09:04:04;;;;;;;9.02;5.25;;;23.50;99.90;;;;;;4972967;28;20038;-56
2024/01/27 09:06:30;;;;;;;8.15;6.00;;;23.60;99.90;;;;;;4972930;28;20386;-54
2024/01/27 09:08:56;;;;;;;8.80;5.82;;;23.60;99.90;;;;;;4973214;28;20019;-54
2024/01/27 09:11:23;;;;;;;8.95;6.00;;;23.60;99.90;;;;;;4955480;28;20118;-56
2024/01/27 09:13:51;;;;;;;8.32;5.93;;;23.60;99.90;;;;;;4972864;28;20117;-56
2024/01/27 09:16:17;;;;;;;7.63;5.03;;;23.60;99.90;;;;;;4972838;28;20027;-55
2024/01/27 09:18:43;;;;;;;9.65;5.53;;;23.70;99.90;;;;;;4975638;28;20549;-55
2024/01/27 09:21:09;;;;;;;8.18;5.22;;;23.70;99.90;;;;;;4976300;28;20027;-55
2024/01/27 09:23:35;;;;;;;10.82;6.05;;;23.70;99.90;;;;;;4976354;28;20073;-56
2024/01/27 09:26:01;;;;;;;6.82;5.25;;;23.70;99.90;;;;;;4976313;28;20027;-56
2024/01/27 09:28:27;;;;;;;8.30;5.53;;;23.70;99.90;;;;;;4976492;28;20027;-55
2024/01/27 09:30:53;;;;;;;8.57;5.18;;;23.70;99.90;;;;;;4976237;28;20019;-55
2024/01/27 09:33:19;;;;;;;15.63;5.40;;;23.70;99.90;;;;;;4976110;28;20511;-55
2024/01/27 09:35:46;;;;;;;8.00;5.45;;;23.80;99.90;;;;;;4975965;28;20022;-56
2024/01/27 09:38:14;;;;;;;10.30;5.20;;;23.80;99.90;;;;;;4976147;28;20061;-57
2024/01/27 09:40:40;;;;;;;10.70;5.50;;;23.80;99.90;;;;;;4975984;28;20062;-55
2024/01/27 09:43:09;;;;;;;9.07;5.30;;;23.80;99.90;;;;;;4975905;28;20496;-56
2024/01/27 09:45:36;;;;;;;7.50;5.05;;;23.80;99.90;;;;;;4975854;28;20066;-56
2024/01/27 09:48:05;;;;;;;6.22;4.85;;;23.90;99.90;;;;;;4975959;28;20107;-56
2024/01/27 09:50:30;;;;;;;8.23;5.43;;;23.90;99.90;;;;;;4975863;28;20034;-56
2024/01/27 09:52:56;;;;;;;8.25;4.35;;;23.90;99.90;;;;;;4975923;28;20042;-56
2024/01/27 09:55:22;;;;;;;5.70;4.70;;;23.90;99.90;;;;;;4975903;28;20023;-55
2024/01/27 09:57:48;;;;;;;6.57;4.80;;;24.00;99.90;;;;;;4975719;28;20023;-54
2024/01/27 10:00:18;;;;;;;7.43;4.60;;;24.00;99.90;;;;;;4975693;28;20101;-55
2024/01/27 10:02:46;;;;;;;7.15;4.65;;;24.00;99.90;;;;;;4975386;28;20054;-55
2024/01/27 10:05:13;;;;;;;7.47;4.80;;;24.10;99.90;;;;;;4975745;28;20025;-55
2024/01/27 10:07:40;;;;;;;7.30;4.50;;;24.10;99.90;;;;;;4975514;28;20032;-55
2024/01/27 10:10:06;;;;;;;8.30;4.85;;;24.10;99.90;;;;;;4975602;28;20050;-55
2024/01/27 10:12:34;;;;;;;11.00;5.03;;;24.20;99.90;;;;;;4975482;28;20142;-55
2024/01/27 10:15:00;;;;;;;6.75;4.80;;;24.20;99.90;;;;;;4975659;28;20384;-54
2024/01/27 10:17:32;;;;;;;6.95;4.60;;;24.20;99.90;;;;;;4975456;28;20076;-57
2024/01/27 10:20:03;;;;;;;5.47;4.03;;;24.20;99.90;;;;;;4975707;28;20166;-55
2024/01/27 10:22:36;;;;;;;7.63;4.05;;;24.30;99.90;;;;;;4975648;28;20031;-55
2024/01/27 10:25:03;;;;;;;9.32;5.97;;;24.40;99.90;;;;;;4975434;28;20027;-54
2024/01/27 10:27:28;;;;;;;8.93;5.00;;;24.40;99.90;;;;;;4975546;28;20030;-54
2024/01/27 10:29:55;;;;;;;8.73;4.82;;;24.50;99.90;;;;;;4957325;28;20380;-55
2024/01/27 10:32:23;;;;;;;6.80;4.38;;;24.50;99.90;;;;;;4975041;28;20038;-55
2024/01/27 10:34:50;;;;;;;7.32;4.63;;;24.50;99.90;;;;;;4975099;28;20407;-55
2024/01/27 10:37:23;;;;;;;6.25;4.25;;;24.60;99.90;;;;;;4975032;28;20049;-54
2024/01/27 10:39:49;;;;;;;6.57;4.45;;;24.60;99.90;;;;;;4974909;28;20035;-56
2024/01/27 10:42:16;;;;;;;5.18;4.38;;;24.60;99.90;;;;;;4973567;28;20029;-56
2024/01/27 10:44:44;;;;;;;9.95;4.35;;;24.70;99.90;;;;;;4974921;28;20109;-56
2024/01/27 10:47:18;;;;;;;5.90;4.28;;;24.70;99.90;;;;;;4974833;28;20030;-57
2024/01/27 10:49:46;;;;;;;6.40;4.30;;;24.70;99.90;;;;;;4974764;28;20030;-56
2024/01/27 10:52:18;;;;;;;11.40;4.28;;;24.80;99.90;;;;;;4974603;28;20034;-57
2024/01/27 10:54:45;;;;;;;5.18;3.78;;;24.80;99.90;;;;;;4957325;28;20058;-57
2024/01/27 10:57:12;;;;;;;7.07;3.72;;;24.80;99.90;;;;;;4974485;28;20023;-56
2024/01/27 10:59:41;;;;;;;8.75;4.07;;;24.90;99.90;;;;;;4974576;28;20042;-56
2024/01/27 11:02:13;;;;;;;7.78;4.50;;;24.90;99.90;;;;;;4974339;28;20038;-56
2024/01/27 11:04:41;;;;;;;4.45;3.28;;;24.90;99.90;;;;;;4957465;28;20377;-57
2024/01/27 11:07:08;;;;;;;7.05;4.25;;;25.00;99.90;;;;;;4974396;28;20027;-56
2024/01/27 11:09:35;;;;;;;5.15;4.03;;;25.00;99.90;;;;;;4974356;28;20057;-56
2024/01/27 11:12:02;;;;;;;4.50;3.67;;;25.00;99.90;;;;;;4974487;28;20045;-55
2024/01/27 11:14:28;;;;;;;5.30;3.77;;;25.10;99.90;;;;;;4974381;28;20022;-56
2024/01/27 11:16:57;;;;;;;6.85;3.78;;;25.10;99.90;;;;;;4974201;28;21158;-55
2024/01/27 11:19:23;;;;;;;5.38;3.70;;;25.10;99.90;;;;;;4974355;28;20026;-55
2024/01/27 11:22:03;;;;;;;6.70;4.30;;;25.10;99.90;;;;;;4957095;28;20030;-55
2024/01/27 11:24:29;;;;;;;6.75;3.90;;;25.10;99.90;;;;;;4974079;28;20035;-56
2024/01/27 11:27:05;;;;;;;4.80;3.92;;;25.20;99.90;;;;;;4956754;28;20569;-56
2024/01/27 11:29:32;;;;;;;4.72;3.53;;;25.20;99.90;;;;;;4974355;28;20117;-55
2024/01/27 11:32:03;;;;;;;5.35;3.63;;;25.20;99.90;;;;;;4973937;28;20029;-55
2024/01/27 11:34:41;;;;;;;5.03;3.53;;;25.30;99.90;;;;;;4973968;28;20022;-55
2024/01/27 11:37:16;;;;;;;7.05;3.75;;;25.30;99.90;;;;;;4973938;28;20054;-56
2024/01/27 11:39:42;;;;;;;5.68;3.83;;;25.30;99.90;;;;;;4955825;28;20022;-56
2024/01/27 11:42:13;;;;;;;4.22;3.40;;;25.40;99.90;;;;;;4973739;28;20041;-56
2024/01/27 11:44:40;;;;;;;6.35;3.47;;;25.40;99.90;;;;;;4973821;28;20110;-55
2024/01/27 11:47:13;;;;;;;4.22;3.38;;;25.40;99.90;;;;;;4973979;28;20035;-56
2024/01/27 11:49:40;;;;;;;5.00;3.53;;;25.40;99.90;;;;;;4973843;28;20046;-56
2024/01/27 11:52:07;;;;;;;5.20;3.40;;;25.40;99.90;;;;;;4973852;28;20354;-57
2024/01/27 11:54:32;;;;;;;21.60;4.60;;;25.50;99.90;;;;;;4973946;28;20089;-56
2024/01/27 11:56:58;;;;;;;5.72;3.35;;;25.50;99.90;;;;;;4973586;28;20064;-56
2024/01/27 11:59:24;;;;;;;6.90;3.78;;;25.50;99.90;;;;;;4973501;28;20387;-56
2024/01/27 12:01:50;;;;;;;4.82;3.50;;;25.50;99.90;;;;;;4973465;28;20047;-56
2024/01/27 12:04:18;;;;;;;8.30;3.90;;;25.60;99.90;;;;;;4973665;28;20027;-56
2024/01/27 12:06:44;;;;;;;5.78;3.28;;;25.50;99.90;;;;;;4973537;28;20392;-56
2024/01/27 12:09:11;;;;;;;5.88;3.47;;;25.60;99.90;;;;;;4973376;28;20482;-56
2024/01/27 12:11:43;;;;;;;5.03;3.50;;;25.60;99.90;;;;;;4973493;28;20467;-57
2024/01/27 12:14:09;;;;;;;7.93;3.30;;;25.70;99.90;;;;;;4956088;28;20081;-56
2024/01/27 12:16:35;;;;;;;6.93;3.22;;;25.70;99.90;;;;;;4973583;28;20511;-55
2024/01/27 12:19:01;;;;;;;6.53;3.20;;;25.70;99.90;;;;;;4973314;28;20035;-55
2024/01/27 12:21:28;;;;;;;4.53;3.20;;;25.70;99.90;;;;;;4973363;28;20022;-55
2024/01/27 12:23:55;;;;;;;5.43;3.75;;;25.70;99.90;;;;;;4973365;28;20035;-55
2024/01/27 12:26:22;;;;;;;8.32;3.05;;;25.70;99.90;;;;;;4973243;28;20034;-56
2024/01/27 12:28:48;;;;;;;;;;;25.80;99.90;;;;;;4973729;28;20030;-56
2024/01/27 12:31:18;;;;;;;7.30;3.78;;;25.80;99.90;;;;;;4973188;28;19921;-56